Aviation Digital Data Service (ADDS)

Output produced by TAFs form (1111 UTC 24 January 2017)
found at http://www.aviationweather.gov/adds/tafs/
 
KABE 240932Z 2410/2506 36010KT 5SM -RADZ BR OVC020 
     FM241500 33012G22KT P6SM OVC025 
     FM242300 32012KT P6SM BKN035